sensor_id;sensor_type;location;lat;lon;timestamp;temperature;humidity
14099;DHT22;7126;48.458;7.930;2023-10-31T00:00:38;13.30;99.90
14099;DHT22;7126;48.458;7.930;2023-10-31T00:03:03;13.20;99.90
14099;DHT22;7126;48.458;7.930;2023-10-31T00:05:29;13.20;99.90
14099;DHT22;7126;48.458;7.930;2023-10-31T00:07:54;13.20;99.90
14099;DHT22;7126;48.458;7.930;2023-10-31T00:10:20;13.20;99.90
14099;DHT22;7126;48.458;7.930;2023-10-31T00:12:45;13.20;99.90
14099;DHT22;7126;48.458;7.930;2023-10-31T00:15:11;13.20;99.90
14099;DHT22;7126;48.458;7.930;2023-10-31T00:17:36;13.20;99.90
14099;DHT22;7126;48.458;7.930;2023-10-31T00:20:02;13.20;99.90
14099;DHT22;7126;48.458;7.930;2023-10-31T00:22:28;13.20;99.90
14099;DHT22;7126;48.458;7.930;2023-10-31T00:24:54;13.20;99.90
14099;DHT22;7126;48.458;7.930;2023-10-31T00:27:19;13.10;99.90
14099;DHT22;7126;48.458;7.930;2023-10-31T00:29:44;13.10;99.90
14099;DHT22;7126;48.458;7.930;2023-10-31T00:32:10;13.10;99.90
14099;DHT22;7126;48.458;7.930;2023-10-31T00:34:35;13.10;99.90
14099;DHT22;7126;48.458;7.930;2023-10-31T00:37:01;13.10;99.90
14099;DHT22;7126;48.458;7.930;2023-10-31T00:39:27;13.20;99.90
14099;DHT22;7126;48.458;7.930;2023-10-31T00:41:52;13.10;99.90
14099;DHT22;7126;48.458;7.930;2023-10-31T00:44:17;13.10;99.90
14099;DHT22;7126;48.458;7.930;2023-10-31T00:46:44;13.00;99.90
14099;DHT22;7126;48.458;7.930;2023-10-31T00:49:10;13.10;99.90
14099;DHT22;7126;48.458;7.930;2023-10-31T00:51:35;13.00;99.90
14099;DHT22;7126;48.458;7.930;2023-10-31T00:54:00;13.10;99.90
14099;DHT22;7126;48.458;7.930;2023-10-31T00:56:26;13.10;99.90
14099;DHT22;7126;48.458;7.930;2023-10-31T00:58:52;13.10;99.90
14099;DHT22;7126;48.458;7.930;2023-10-31T01:01:17;13.20;99.90
14099;DHT22;7126;48.458;7.930;2023-10-31T01:03:43;13.20;99.90
14099;DHT22;7126;48.458;7.930;2023-10-31T01:06:08;13.20;99.90
14099;DHT22;7126;48.458;7.930;2023-10-31T01:08:34;13.20;99.90
14099;DHT22;7126;48.458;7.930;2023-10-31T01:11:00;13.10;99.90
14099;DHT22;7126;48.458;7.930;2023-10-31T01:13:25;13.10;99.90
14099;DHT22;7126;48.458;7.930;2023-10-31T01:15:51;13.00;99.90
14099;DHT22;7126;48.458;7.930;2023-10-31T01:18:16;13.00;99.90
14099;DHT22;7126;48.458;7.930;2023-10-31T01:20:42;13.00;99.90
14099;DHT22;7126;48.458;7.930;2023-10-31T01:23:07;12.90;99.90
14099;DHT22;7126;48.458;7.930;2023-10-31T01:25:33;13.00;99.90
14099;DHT22;7126;48.458;7.930;2023-10-31T01:27:58;13.00;99.90
14099;DHT22;7126;48.458;7.930;2023-10-31T01:30:24;13.00;99.90
14099;DHT22;7126;48.458;7.930;2023-10-31T01:32:49;13.10;99.90
14099;DHT22;7126;48.458;7.930;2023-10-31T01:35:15;13.10;99.90
14099;DHT22;7126;48.458;7.930;2023-10-31T01:37:40;13.10;99.90
14099;DHT22;7126;48.458;7.930;2023-10-31T01:40:06;13.10;99.90
14099;DHT22;7126;48.458;7.930;2023-10-31T01:42:33;13.10;99.90
14099;DHT22;7126;48.458;7.930;2023-10-31T01:44:58;13.10;99.90
14099;DHT22;7126;48.458;7.930;2023-10-31T01:47:23;13.10;99.90
14099;DHT22;7126;48.458;7.930;2023-10-31T01:49:50;13.10;99.90
14099;DHT22;7126;48.458;7.930;2023-10-31T01:52:16;13.10;99.90
14099;DHT22;7126;48.458;7.930;2023-10-31T01:54:43;13.10;99.90
14099;DHT22;7126;48.458;7.930;2023-10-31T01:57:09;13.10;99.90
14099;DHT22;7126;48.458;7.930;2023-10-31T01:59:35;13.10;99.90
14099;DHT22;7126;48.458;7.930;2023-10-31T02:02:01;13.10;99.90
14099;DHT22;7126;48.458;7.930;2023-10-31T02:04:26;13.10;99.90
14099;DHT22;7126;48.458;7.930;2023-10-31T02:06:52;13.20;99.90
14099;DHT22;7126;48.458;7.930;2023-10-31T02:09:17;13.10;99.90
14099;DHT22;7126;48.458;7.930;2023-10-31T02:11:43;13.10;99.90
14099;DHT22;7126;48.458;7.930;2023-10-31T02:14:08;13.00;99.90
14099;DHT22;7126;48.458;7.930;2023-10-31T02:16:34;13.00;99.90
14099;DHT22;7126;48.458;7.930;2023-10-31T02:18:59;13.00;99.90
14099;DHT22;7126;48.458;7.930;2023-10-31T02:21:25;13.00;99.90
14099;DHT22;7126;48.458;7.930;2023-10-31T02:23:59;13.00;99.90
14099;DHT22;7126;48.458;7.930;2023-10-31T02:26:33;13.00;99.90
14099;DHT22;7126;48.458;7.930;2023-10-31T02:28:59;13.00;99.90
14099;DHT22;7126;48.458;7.930;2023-10-31T02:31:25;13.00;99.90
14099;DHT22;7126;48.458;7.930;2023-10-31T02:33:51;13.00;99.90
14099;DHT22;7126;48.458;7.930;2023-10-31T02:36:17;13.00;99.90
14099;DHT22;7126;48.458;7.930;2023-10-31T02:38:43;13.00;99.90
14099;DHT22;7126;48.458;7.930;2023-10-31T02:41:08;12.90;99.90
14099;DHT22;7126;48.458;7.930;2023-10-31T02:43:34;13.00;99.90
14099;DHT22;7126;48.458;7.930;2023-10-31T02:45:59;12.90;99.90
14099;DHT22;7126;48.458;7.930;2023-10-31T02:48:26;12.90;99.90
14099;DHT22;7126;48.458;7.930;2023-10-31T02:50:51;12.90;99.90
14099;DHT22;7126;48.458;7.930;2023-10-31T02:53:20;12.90;99.90
14099;DHT22;7126;48.458;7.930;2023-10-31T02:55:46;12.90;99.90
14099;DHT22;7126;48.458;7.930;2023-10-31T02:58:11;12.90;99.90
14099;DHT22;7126;48.458;7.930;2023-10-31T03:00:37;12.90;99.90
14099;DHT22;7126;48.458;7.930;2023-10-31T03:03:03;12.90;99.90
14099;DHT22;7126;48.458;7.930;2023-10-31T03:05:28;13.00;99.90
14099;DHT22;7126;48.458;7.930;2023-10-31T03:07:54;12.90;99.90
14099;DHT22;7126;48.458;7.930;2023-10-31T03:10:20;12.90;99.90
14099;DHT22;7126;48.458;7.930;2023-10-31T03:12:46;12.90;99.90
14099;DHT22;7126;48.458;7.930;2023-10-31T03:15:12;12.90;99.90
14099;DHT22;7126;48.458;7.930;2023-10-31T03:17:37;12.80;99.90
14099;DHT22;7126;48.458;7.930;2023-10-31T03:20:03;12.80;99.90
14099;DHT22;7126;48.458;7.930;2023-10-31T03:22:29;12.80;99.90
14099;DHT22;7126;48.458;7.930;2023-10-31T03:24:54;12.80;99.90
14099;DHT22;7126;48.458;7.930;2023-10-31T03:27:20;12.80;99.90
14099;DHT22;7126;48.458;7.930;2023-10-31T03:29:45;12.80;99.90
14099;DHT22;7126;48.458;7.930;2023-10-31T03:32:12;12.80;99.90
14099;DHT22;7126;48.458;7.930;2023-10-31T03:34:37;12.80;99.90
14099;DHT22;7126;48.458;7.930;2023-10-31T03:37:04;12.80;99.90
14099;DHT22;7126;48.458;7.930;2023-10-31T03:39:29;12.80;99.90
14099;DHT22;7126;48.458;7.930;2023-10-31T03:41:55;12.80;99.90
14099;DHT22;7126;48.458;7.930;2023-10-31T03:44:20;12.80;99.90
14099;DHT22;7126;48.458;7.930;2023-10-31T03:46:46;12.90;99.90
14099;DHT22;7126;48.458;7.930;2023-10-31T03:49:11;12.90;99.90
14099;DHT22;7126;48.458;7.930;2023-10-31T03:51:37;12.90;99.90
14099;DHT22;7126;48.458;7.930;2023-10-31T03:54:02;12.90;99.90
14099;DHT22;7126;48.458;7.930;2023-10-31T03:56:28;12.90;99.90
14099;DHT22;7126;48.458;7.930;2023-10-31T03:58:53;12.80;99.90
14099;DHT22;7126;48.458;7.930;2023-10-31T04:01:19;12.80;99.90
14099;DHT22;7126;48.458;7.930;2023-10-31T04:03:45;12.70;99.90
14099;DHT22;7126;48.458;7.930;2023-10-31T04:06:11;12.70;99.90
14099;DHT22;7126;48.458;7.930;2023-10-31T04:08:37;12.70;99.90
14099;DHT22;7126;48.458;7.930;2023-10-31T04:11:03;12.80;99.90
14099;DHT22;7126;48.458;7.930;2023-10-31T04:13:28;12.80;99.90
14099;DHT22;7126;48.458;7.930;2023-10-31T04:15:54;12.80;99.90
14099;DHT22;7126;48.458;7.930;2023-10-31T04:18:19;12.80;99.90
14099;DHT22;7126;48.458;7.930;2023-10-31T04:20:45;12.80;99.90
14099;DHT22;7126;48.458;7.930;2023-10-31T04:23:10;12.80;99.90
14099;DHT22;7126;48.458;7.930;2023-10-31T04:25:37;12.70;99.90
14099;DHT22;7126;48.458;7.930;2023-10-31T04:28:03;12.60;99.90
14099;DHT22;7126;48.458;7.930;2023-10-31T04:30:28;12.70;99.90
14099;DHT22;7126;48.458;7.930;2023-10-31T04:32:54;12.70;99.90
14099;DHT22;7126;48.458;7.930;2023-10-31T04:35:20;12.70;99.90
14099;DHT22;7126;48.458;7.930;2023-10-31T04:37:45;12.70;99.90
14099;DHT22;7126;48.458;7.930;2023-10-31T04:40:11;12.70;99.90
14099;DHT22;7126;48.458;7.930;2023-10-31T04:42:39;12.60;99.90
14099;DHT22;7126;48.458;7.930;2023-10-31T04:45:06;12.60;99.90
14099;DHT22;7126;48.458;7.930;2023-10-31T04:47:32;12.70;99.90
14099;DHT22;7126;48.458;7.930;2023-10-31T04:49:57;12.70;99.90
14099;DHT22;7126;48.458;7.930;2023-10-31T04:52:23;12.70;99.90
14099;DHT22;7126;48.458;7.930;2023-10-31T04:54:51;12.70;99.90
14099;DHT22;7126;48.458;7.930;2023-10-31T04:57:17;12.70;99.90
14099;DHT22;7126;48.458;7.930;2023-10-31T04:59:42;12.70;99.90
14099;DHT22;7126;48.458;7.930;2023-10-31T05:02:08;12.60;99.90
14099;DHT22;7126;48.458;7.930;2023-10-31T05:04:33;12.70;99.90
14099;DHT22;7126;48.458;7.930;2023-10-31T05:06:59;12.70;99.90
14099;DHT22;7126;48.458;7.930;2023-10-31T05:09:25;12.70;99.90
14099;DHT22;7126;48.458;7.930;2023-10-31T05:11:51;12.60;99.90
14099;DHT22;7126;48.458;7.930;2023-10-31T05:14:16;12.60;99.90
14099;DHT22;7126;48.458;7.930;2023-10-31T05:16:42;12.60;99.90
14099;DHT22;7126;48.458;7.930;2023-10-31T05:19:09;12.50;99.90
14099;DHT22;7126;48.458;7.930;2023-10-31T05:21:34;12.50;99.90
14099;DHT22;7126;48.458;7.930;2023-10-31T05:24:00;12.40;99.90
14099;DHT22;7126;48.458;7.930;2023-10-31T05:26:25;12.40;99.90
14099;DHT22;7126;48.458;7.930;2023-10-31T05:28:53;12.50;99.90
14099;DHT22;7126;48.458;7.930;2023-10-31T05:31:18;12.50;99.90
14099;DHT22;7126;48.458;7.930;2023-10-31T05:33:44;12.50;99.90
14099;DHT22;7126;48.458;7.930;2023-10-31T05:36:23;12.50;99.90
14099;DHT22;7126;48.458;7.930;2023-10-31T05:38:49;12.40;99.90
14099;DHT22;7126;48.458;7.930;2023-10-31T05:41:15;12.40;99.90
14099;DHT22;7126;48.458;7.930;2023-10-31T05:43:41;12.40;99.90
14099;DHT22;7126;48.458;7.930;2023-10-31T05:46:07;12.50;99.90
14099;DHT22;7126;48.458;7.930;2023-10-31T05:48:39;12.50;99.90
14099;DHT22;7126;48.458;7.930;2023-10-31T05:51:13;12.50;99.90
14099;DHT22;7126;48.458;7.930;2023-10-31T05:53:40;12.50;99.90
14099;DHT22;7126;48.458;7.930;2023-10-31T05:56:06;12.40;99.90
14099;DHT22;7126;48.458;7.930;2023-10-31T05:58:35;12.40;99.90
14099;DHT22;7126;48.458;7.930;2023-10-31T06:01:00;12.40;99.90
14099;DHT22;7126;48.458;7.930;2023-10-31T06:03:26;12.30;99.90
14099;DHT22;7126;48.458;7.930;2023-10-31T06:05:51;12.40;99.90
14099;DHT22;7126;48.458;7.930;2023-10-31T06:08:17;12.40;99.90
14099;DHT22;7126;48.458;7.930;2023-10-31T06:10:42;12.40;99.90
14099;DHT22;7126;48.458;7.930;2023-10-31T06:13:08;12.30;99.90
14099;DHT22;7126;48.458;7.930;2023-10-31T06:15:33;12.30;99.90
14099;DHT22;7126;48.458;7.930;2023-10-31T06:17:59;12.30;99.90
14099;DHT22;7126;48.458;7.930;2023-10-31T06:20:24;12.30;99.90
14099;DHT22;7126;48.458;7.930;2023-10-31T06:22:50;12.20;99.90
14099;DHT22;7126;48.458;7.930;2023-10-31T06:25:15;12.30;99.90
14099;DHT22;7126;48.458;7.930;2023-10-31T06:27:41;12.20;99.90
14099;DHT22;7126;48.458;7.930;2023-10-31T06:30:07;12.20;99.90
14099;DHT22;7126;48.458;7.930;2023-10-31T06:32:32;12.20;99.90
14099;DHT22;7126;48.458;7.930;2023-10-31T06:34:58;12.20;99.90
14099;DHT22;7126;48.458;7.930;2023-10-31T06:37:23;12.20;99.90
14099;DHT22;7126;48.458;7.930;2023-10-31T06:39:49;12.20;99.90
14099;DHT22;7126;48.458;7.930;2023-10-31T06:42:14;12.20;99.90
14099;DHT22;7126;48.458;7.930;2023-10-31T06:44:40;12.20;99.90
14099;DHT22;7126;48.458;7.930;2023-10-31T06:47:05;12.20;99.90
14099;DHT22;7126;48.458;7.930;2023-10-31T06:49:31;12.20;99.90
14099;DHT22;7126;48.458;7.930;2023-10-31T06:51:56;12.20;99.90
14099;DHT22;7126;48.458;7.930;2023-10-31T06:54:22;12.20;99.90
14099;DHT22;7126;48.458;7.930;2023-10-31T06:56:47;12.10;99.90
14099;DHT22;7126;48.458;7.930;2023-10-31T06:59:13;12.10;99.90
14099;DHT22;7126;48.458;7.930;2023-10-31T07:01:38;12.10;99.90
14099;DHT22;7126;48.458;7.930;2023-10-31T07:04:04;12.20;99.90
14099;DHT22;7126;48.458;7.930;2023-10-31T07:06:30;12.20;99.90
14099;DHT22;7126;48.458;7.930;2023-10-31T07:08:55;12.30;99.90
14099;DHT22;7126;48.458;7.930;2023-10-31T07:11:22;12.30;99.90
14099;DHT22;7126;48.458;7.930;2023-10-31T07:13:48;12.30;99.90
14099;DHT22;7126;48.458;7.930;2023-10-31T07:16:13;12.40;99.90
14099;DHT22;7126;48.458;7.930;2023-10-31T07:18:39;12.40;99.90
14099;DHT22;7126;48.458;7.930;2023-10-31T07:21:04;12.50;99.90
14099;DHT22;7126;48.458;7.930;2023-10-31T07:23:30;12.40;99.90
14099;DHT22;7126;48.458;7.930;2023-10-31T07:25:56;12.40;99.90
14099;DHT22;7126;48.458;7.930;2023-10-31T07:28:21;12.40;99.90
14099;DHT22;7126;48.458;7.930;2023-10-31T07:30:47;12.50;99.90
14099;DHT22;7126;48.458;7.930;2023-10-31T07:33:12;12.50;99.90
14099;DHT22;7126;48.458;7.930;2023-10-31T07:35:38;12.60;99.90
14099;DHT22;7126;48.458;7.930;2023-10-31T07:38:03;12.60;99.90
14099;DHT22;7126;48.458;7.930;2023-10-31T07:40:29;12.70;99.90
14099;DHT22;7126;48.458;7.930;2023-10-31T07:42:54;12.70;99.90
14099;DHT22;7126;48.458;7.930;2023-10-31T07:45:20;12.70;99.90
14099;DHT22;7126;48.458;7.930;2023-10-31T07:47:45;12.70;99.90
14099;DHT22;7126;48.458;7.930;2023-10-31T07:50:11;12.80;99.90
14099;DHT22;7126;48.458;7.930;2023-10-31T07:52:38;12.80;99.90
14099;DHT22;7126;48.458;7.930;2023-10-31T07:55:03;12.80;99.90
14099;DHT22;7126;48.458;7.930;2023-10-31T07:57:29;12.80;99.90
14099;DHT22;7126;48.458;7.930;2023-10-31T07:59:55;12.80;99.90
14099;DHT22;7126;48.458;7.930;2023-10-31T08:02:20;12.80;99.90
14099;DHT22;7126;48.458;7.930;2023-10-31T08:04:45;12.80;99.90
14099;DHT22;7126;48.458;7.930;2023-10-31T08:07:11;12.80;99.90
14099;DHT22;7126;48.458;7.930;2023-10-31T08:09:36;12.80;99.90
14099;DHT22;7126;48.458;7.930;2023-10-31T08:12:02;12.80;99.90
14099;DHT22;7126;48.458;7.930;2023-10-31T08:14:28;12.80;99.90
14099;DHT22;7126;48.458;7.930;2023-10-31T08:16:53;12.90;99.90
14099;DHT22;7126;48.458;7.930;2023-10-31T08:19:19;12.90;99.90
14099;DHT22;7126;48.458;7.930;2023-10-31T08:21:44;12.90;99.90
14099;DHT22;7126;48.458;7.930;2023-10-31T08:24:10;12.90;99.90
14099;DHT22;7126;48.458;7.930;2023-10-31T08:26:35;12.80;99.90
14099;DHT22;7126;48.458;7.930;2023-10-31T08:29:01;12.80;99.90
14099;DHT22;7126;48.458;7.930;2023-10-31T08:31:26;12.80;99.90
14099;DHT22;7126;48.458;7.930;2023-10-31T08:33:52;12.80;99.90
14099;DHT22;7126;48.458;7.930;2023-10-31T08:36:17;12.80;99.90
14099;DHT22;7126;48.458;7.930;2023-10-31T08:38:43;12.90;99.90
14099;DHT22;7126;48.458;7.930;2023-10-31T08:41:08;12.90;99.90
14099;DHT22;7126;48.458;7.930;2023-10-31T08:43:34;13.00;99.90
14099;DHT22;7126;48.458;7.930;2023-10-31T08:45:59;13.00;99.90
14099;DHT22;7126;48.458;7.930;2023-10-31T08:48:26;13.10;99.90
14099;DHT22;7126;48.458;7.930;2023-10-31T08:50:52;13.20;99.90
14099;DHT22;7126;48.458;7.930;2023-10-31T08:53:17;13.20;99.90
14099;DHT22;7126;48.458;7.930;2023-10-31T08:55:44;13.20;99.90
14099;DHT22;7126;48.458;7.930;2023-10-31T08:58:11;13.30;99.90
14099;DHT22;7126;48.458;7.930;2023-10-31T09:00:38;13.20;99.90
14099;DHT22;7126;48.458;7.930;2023-10-31T09:03:03;13.20;99.90
14099;DHT22;7126;48.458;7.930;2023-10-31T09:05:29;13.20;99.90
14099;DHT22;7126;48.458;7.930;2023-10-31T09:07:54;13.20;99.90
14099;DHT22;7126;48.458;7.930;2023-10-31T09:10:20;13.20;99.90
14099;DHT22;7126;48.458;7.930;2023-10-31T09:12:46;13.30;99.90
14099;DHT22;7126;48.458;7.930;2023-10-31T09:15:11;13.30;99.90
14099;DHT22;7126;48.458;7.930;2023-10-31T09:17:38;13.40;99.90
14099;DHT22;7126;48.458;7.930;2023-10-31T09:20:04;13.50;99.90
14099;DHT22;7126;48.458;7.930;2023-10-31T09:22:30;13.60;99.90
14099;DHT22;7126;48.458;7.930;2023-10-31T09:24:55;13.70;99.90
14099;DHT22;7126;48.458;7.930;2023-10-31T09:27:21;13.70;99.90
14099;DHT22;7126;48.458;7.930;2023-10-31T09:29:46;13.70;99.90
14099;DHT22;7126;48.458;7.930;2023-10-31T09:32:14;13.70;99.90
14099;DHT22;7126;48.458;7.930;2023-10-31T09:34:39;13.70;99.90
14099;DHT22;7126;48.458;7.930;2023-10-31T09:37:05;13.70;99.90
14099;DHT22;7126;48.458;7.930;2023-10-31T09:39:30;13.70;99.90
14099;DHT22;7126;48.458;7.930;2023-10-31T09:41:56;13.70;99.90
14099;DHT22;7126;48.458;7.930;2023-10-31T09:44:21;13.70;99.90
14099;DHT22;7126;48.458;7.930;2023-10-31T09:46:47;13.80;99.90
14099;DHT22;7126;48.458;7.930;2023-10-31T09:49:13;13.80;99.90
14099;DHT22;7126;48.458;7.930;2023-10-31T09:51:39;13.90;99.90
14099;DHT22;7126;48.458;7.930;2023-10-31T09:54:05;13.90;99.90
14099;DHT22;7126;48.458;7.930;2023-10-31T09:56:31;13.90;99.90
14099;DHT22;7126;48.458;7.930;2023-10-31T09:59:00;14.00;99.90
14099;DHT22;7126;48.458;7.930;2023-10-31T10:01:26;14.10;99.90
14099;DHT22;7126;48.458;7.930;2023-10-31T10:03:52;14.20;99.90
14099;DHT22;7126;48.458;7.930;2023-10-31T10:06:20;14.30;99.90
14099;DHT22;7126;48.458;7.930;2023-10-31T10:08:46;14.30;99.90
14099;DHT22;7126;48.458;7.930;2023-10-31T10:11:12;14.30;99.90
14099;DHT22;7126;48.458;7.930;2023-10-31T10:13:38;14.30;99.90
14099;DHT22;7126;48.458;7.930;2023-10-31T10:16:04;14.30;99.90
14099;DHT22;7126;48.458;7.930;2023-10-31T10:18:32;14.20;99.90
14099;DHT22;7126;48.458;7.930;2023-10-31T10:20:59;14.20;99.90
14099;DHT22;7126;48.458;7.930;2023-10-31T10:23:26;14.10;99.90
14099;DHT22;7126;48.458;7.930;2023-10-31T10:25:52;14.10;99.90
14099;DHT22;7126;48.458;7.930;2023-10-31T10:28:18;14.10;99.90
14099;DHT22;7126;48.458;7.930;2023-10-31T10:30:46;14.10;99.90
14099;DHT22;7126;48.458;7.930;2023-10-31T10:33:12;14.10;99.90
14099;DHT22;7126;48.458;7.930;2023-10-31T10:35:38;14.20;99.90
14099;DHT22;7126;48.458;7.930;2023-10-31T10:38:07;14.30;99.90
14099;DHT22;7126;48.458;7.930;2023-10-31T10:40:35;14.30;99.90
14099;DHT22;7126;48.458;7.930;2023-10-31T10:43:05;14.30;99.90
14099;DHT22;7126;48.458;7.930;2023-10-31T10:45:35;14.30;99.90
14099;DHT22;7126;48.458;7.930;2023-10-31T10:48:02;14.40;99.90
14099;DHT22;7126;48.458;7.930;2023-10-31T10:50:30;14.50;99.90
14099;DHT22;7126;48.458;7.930;2023-10-31T10:53:21;14.60;99.90
14099;DHT22;7126;48.458;7.930;2023-10-31T10:55:51;14.70;99.90
14099;DHT22;7126;48.458;7.930;2023-10-31T10:58:26;14.80;99.90
14099;DHT22;7126;48.458;7.930;2023-10-31T11:00:53;14.80;99.90
14099;DHT22;7126;48.458;7.930;2023-10-31T11:03:21;14.80;99.90
14099;DHT22;7126;48.458;7.930;2023-10-31T11:05:47;14.80;99.90
14099;DHT22;7126;48.458;7.930;2023-10-31T11:08:13;14.70;99.90
14099;DHT22;7126;48.458;7.930;2023-10-31T11:10:39;14.80;99.90
14099;DHT22;7126;48.458;7.930;2023-10-31T11:13:05;14.90;99.90
14099;DHT22;7126;48.458;7.930;2023-10-31T11:15:31;14.90;99.90
14099;DHT22;7126;48.458;7.930;2023-10-31T11:17:57;15.00;99.90
14099;DHT22;7126;48.458;7.930;2023-10-31T11:20:24;14.90;99.90
14099;DHT22;7126;48.458;7.930;2023-10-31T11:22:55;14.70;99.90
14099;DHT22;7126;48.458;7.930;2023-10-31T11:25:23;14.60;99.90
14099;DHT22;7126;48.458;7.930;2023-10-31T11:27:52;14.60;99.90
14099;DHT22;7126;48.458;7.930;2023-10-31T11:30:29;14.70;99.90
14099;DHT22;7126;48.458;7.930;2023-10-31T11:32:58;14.70;99.90
14099;DHT22;7126;48.458;7.930;2023-10-31T11:35:24;14.70;99.90
14099;DHT22;7126;48.458;7.930;2023-10-31T11:38:01;14.60;99.90
14099;DHT22;7126;48.458;7.930;2023-10-31T11:40:29;14.60;99.90
14099;DHT22;7126;48.458;7.930;2023-10-31T11:42:57;14.70;99.90
14099;DHT22;7126;48.458;7.930;2023-10-31T11:47:57;14.60;99.90
14099;DHT22;7126;48.458;7.930;2023-10-31T11:50:23;14.60;99.90
14099;DHT22;7126;48.458;7.930;2023-10-31T11:53:11;14.60;99.90
14099;DHT22;7126;48.458;7.930;2023-10-31T11:55:46;14.60;99.90
14099;DHT22;7126;48.458;7.930;2023-10-31T11:58:23;14.60;99.90
14099;DHT22;7126;48.458;7.930;2023-10-31T12:00:56;14.60;99.90
14099;DHT22;7126;48.458;7.930;2023-10-31T12:03:25;14.60;99.90
14099;DHT22;7126;48.458;7.930;2023-10-31T12:05:58;14.60;99.90
14099;DHT22;7126;48.458;7.930;2023-10-31T12:08:40;14.80;99.90
14099;DHT22;7126;48.458;7.930;2023-10-31T12:13:39;15.10;99.90
14099;DHT22;7126;48.458;7.930;2023-10-31T12:16:06;15.30;99.90
14099;DHT22;7126;48.458;7.930;2023-10-31T12:18:36;15.50;99.90
14099;DHT22;7126;48.458;7.930;2023-10-31T12:21:04;15.60;99.90
14099;DHT22;7126;48.458;7.930;2023-10-31T12:23:29;15.60;99.90
14099;DHT22;7126;48.458;7.930;2023-10-31T12:25:55;15.50;99.90
14099;DHT22;7126;48.458;7.930;2023-10-31T12:28:23;15.50;99.90
14099;DHT22;7126;48.458;7.930;2023-10-31T12:30:51;15.50;99.90
14099;DHT22;7126;48.458;7.930;2023-10-31T12:33:20;15.50;99.90
14099;DHT22;7126;48.458;7.930;2023-10-31T12:35:47;15.50;99.90
14099;DHT22;7126;48.458;7.930;2023-10-31T12:38:14;15.60;99.90
14099;DHT22;7126;48.458;7.930;2023-10-31T12:40:41;15.60;99.90
14099;DHT22;7126;48.458;7.930;2023-10-31T12:43:08;15.70;99.90
14099;DHT22;7126;48.458;7.930;2023-10-31T12:45:33;15.90;99.90
14099;DHT22;7126;48.458;7.930;2023-10-31T12:48:06;16.10;99.90
14099;DHT22;7126;48.458;7.930;2023-10-31T12:50:33;16.20;99.90
14099;DHT22;7126;48.458;7.930;2023-10-31T12:52:59;16.20;99.90
14099;DHT22;7126;48.458;7.930;2023-10-31T12:55:27;16.30;99.90
14099;DHT22;7126;48.458;7.930;2023-10-31T12:57:54;16.60;99.90
14099;DHT22;7126;48.458;7.930;2023-10-31T13:00:21;16.80;99.90
14099;DHT22;7126;48.458;7.930;2023-10-31T13:03:00;16.70;99.90
14099;DHT22;7126;48.458;7.930;2023-10-31T13:05:27;16.40;99.90
14099;DHT22;7126;48.458;7.930;2023-10-31T13:07:54;16.10;99.90
14099;DHT22;7126;48.458;7.930;2023-10-31T13:10:22;16.00;99.90
14099;DHT22;7126;48.458;7.930;2023-10-31T13:12:48;15.90;99.90
14099;DHT22;7126;48.458;7.930;2023-10-31T13:15:15;15.90;99.90
14099;DHT22;7126;48.458;7.930;2023-10-31T13:17:42;15.70;99.90
14099;DHT22;7126;48.458;7.930;2023-10-31T13:20:12;15.50;99.90
14099;DHT22;7126;48.458;7.930;2023-10-31T13:22:38;15.40;99.90
14099;DHT22;7126;48.458;7.930;2023-10-31T13:25:06;15.30;99.90
14099;DHT22;7126;48.458;7.930;2023-10-31T13:27:33;15.30;99.90
14099;DHT22;7126;48.458;7.930;2023-10-31T13:30:03;15.20;99.90
14099;DHT22;7126;48.458;7.930;2023-10-31T13:32:29;15.20;99.90
14099;DHT22;7126;48.458;7.930;2023-10-31T13:34:55;15.20;99.90
14099;DHT22;7126;48.458;7.930;2023-10-31T13:37:21;15.10;99.90
14099;DHT22;7126;48.458;7.930;2023-10-31T13:39:46;15.10;99.90
14099;DHT22;7126;48.458;7.930;2023-10-31T13:42:12;15.00;99.90
14099;DHT22;7126;48.458;7.930;2023-10-31T13:44:40;15.00;99.90
14099;DHT22;7126;48.458;7.930;2023-10-31T13:47:05;15.00;99.90
14099;DHT22;7126;48.458;7.930;2023-10-31T13:49:31;14.90;99.90
14099;DHT22;7126;48.458;7.930;2023-10-31T13:51:56;14.90;99.90
14099;DHT22;7126;48.458;7.930;2023-10-31T13:54:22;14.90;99.90
14099;DHT22;7126;48.458;7.930;2023-10-31T13:56:48;14.90;99.90
14099;DHT22;7126;48.458;7.930;2023-10-31T13:59:13;14.90;99.90
14099;DHT22;7126;48.458;7.930;2023-10-31T14:01:40;14.90;99.90
14099;DHT22;7126;48.458;7.930;2023-10-31T14:04:07;14.90;99.90
14099;DHT22;7126;48.458;7.930;2023-10-31T14:06:32;14.90;99.90
14099;DHT22;7126;48.458;7.930;2023-10-31T14:08:59;14.90;99.90
14099;DHT22;7126;48.458;7.930;2023-10-31T14:11:24;14.90;99.90
14099;DHT22;7126;48.458;7.930;2023-10-31T14:13:50;14.80;99.90
14099;DHT22;7126;48.458;7.930;2023-10-31T14:16:16;14.80;99.90
14099;DHT22;7126;48.458;7.930;2023-10-31T14:18:41;14.80;99.90
14099;DHT22;7126;48.458;7.930;2023-10-31T14:21:08;14.80;99.90
14099;DHT22;7126;48.458;7.930;2023-10-31T14:23:34;14.70;99.90
14099;DHT22;7126;48.458;7.930;2023-10-31T14:26:00;14.70;99.90
14099;DHT22;7126;48.458;7.930;2023-10-31T14:28:25;14.80;99.90
14099;DHT22;7126;48.458;7.930;2023-10-31T14:30:51;14.80;99.90
14099;DHT22;7126;48.458;7.930;2023-10-31T14:33:18;14.80;99.90
14099;DHT22;7126;48.458;7.930;2023-10-31T14:35:43;14.80;99.90
14099;DHT22;7126;48.458;7.930;2023-10-31T14:38:09;14.80;99.90
14099;DHT22;7126;48.458;7.930;2023-10-31T14:40:34;14.80;99.90
14099;DHT22;7126;48.458;7.930;2023-10-31T14:43:00;14.80;99.90
14099;DHT22;7126;48.458;7.930;2023-10-31T14:45:26;14.80;99.90
14099;DHT22;7126;48.458;7.930;2023-10-31T14:47:52;14.80;99.90
14099;DHT22;7126;48.458;7.930;2023-10-31T14:50:18;14.80;99.90
14099;DHT22;7126;48.458;7.930;2023-10-31T14:52:46;14.90;99.90
14099;DHT22;7126;48.458;7.930;2023-10-31T14:55:12;14.90;99.90
14099;DHT22;7126;48.458;7.930;2023-10-31T14:57:37;14.90;99.90
14099;DHT22;7126;48.458;7.930;2023-10-31T15:00:03;14.90;99.90
14099;DHT22;7126;48.458;7.930;2023-10-31T15:02:29;14.90;99.90
14099;DHT22;7126;48.458;7.930;2023-10-31T15:04:55;14.90;99.90
14099;DHT22;7126;48.458;7.930;2023-10-31T15:07:20;14.90;99.90
14099;DHT22;7126;48.458;7.930;2023-10-31T15:09:46;14.80;99.90
14099;DHT22;7126;48.458;7.930;2023-10-31T15:12:13;14.70;99.90
14099;DHT22;7126;48.458;7.930;2023-10-31T15:14:39;14.70;99.90
14099;DHT22;7126;48.458;7.930;2023-10-31T15:17:04;14.70;99.90
14099;DHT22;7126;48.458;7.930;2023-10-31T15:19:30;14.70;99.90
14099;DHT22;7126;48.458;7.930;2023-10-31T15:21:55;14.70;99.90
14099;DHT22;7126;48.458;7.930;2023-10-31T15:24:20;14.70;99.90
14099;DHT22;7126;48.458;7.930;2023-10-31T15:26:46;14.70;99.90
14099;DHT22;7126;48.458;7.930;2023-10-31T15:29:11;14.70;99.90
14099;DHT22;7126;48.458;7.930;2023-10-31T15:31:45;14.50;99.90
14099;DHT22;7126;48.458;7.930;2023-10-31T15:34:12;14.50;99.90
14099;DHT22;7126;48.458;7.930;2023-10-31T15:36:38;14.50;99.90
14099;DHT22;7126;48.458;7.930;2023-10-31T15:39:03;14.50;99.90
14099;DHT22;7126;48.458;7.930;2023-10-31T15:41:29;14.50;99.90
14099;DHT22;7126;48.458;7.930;2023-10-31T15:43:54;14.50;99.90